Time;durP1;ratioP1;P1;durP2;ratioP2;P2;SDS_P1;SDS_P2;PMS_P1;PMS_P2;Temp;Humidity;BMP_temperature;BMP_pressure;BME280_temperature;BME280_humidity;BME280_pressure;Samples;Min_cycle;Max_cycle;Signal;HPM_P1;HPM_P2
2023/08/20 00:02:25;;;;;;;;;;;26.10;49.10;;;;;;5013427;28;82741;-46
2023/08/20 00:04:50;;;;;;;;;;;26.10;49.10;;;;;;5012827;28;82181;-45
2023/08/20 00:07:18;;;;;;;;;;;26.00;49.10;;;;;;5017468;28;82980;-46
2023/08/20 00:09:43;;;;;;;;;;;26.00;49.10;;;;;;5015423;28;82920;-45
2023/08/20 00:12:09;;;;;;;;;;;26.00;49.10;;;;;;5016111;28;81455;-45
2023/08/20 00:14:54;;;;;;;;;;;26.00;49.10;;;;;;5016911;28;82096;-45
2023/08/20 00:17:20;;;;;;;;;;;26.00;49.10;;;;;;5015344;28;83169;-48
2023/08/20 00:19:46;;;;;;;;;;;25.90;49.10;;;;;;5013513;28;82910;-44
2023/08/20 00:22:11;;;;;;;;;;;26.00;49.20;;;;;;5015415;28;83095;-45
2023/08/20 00:24:37;;;;;;;;;;;26.00;49.20;;;;;;5017052;28;82268;-46
2023/08/20 00:27:02;;;;;;;;;;;26.00;49.20;;;;;;5014545;28;82600;-45
2023/08/20 00:29:28;;;;;;;;;;;25.90;49.10;;;;;;5017294;28;83243;-44
2023/08/20 00:31:53;;;;;;;;;;;25.90;49.20;;;;;;5014687;28;82094;-46
2023/08/20 00:34:19;;;;;;;;;;;25.90;49.20;;;;;;5012484;28;82392;-44
2023/08/20 00:36:45;;;;;;;;;;;25.90;49.20;;;;;;5015606;28;82412;-46
2023/08/20 00:39:11;;;;;;;;;;;25.80;49.10;;;;;;5018454;28;82015;-44
2023/08/20 00:41:37;;;;;;;;;;;25.80;49.80;;;;;;5016367;28;83318;-44
2023/08/20 00:44:03;;;;;;;;;;;25.80;49.20;;;;;;5014025;28;83003;-46
2023/08/20 00:46:29;;;;;;;;;;;25.80;49.20;;;;;;5017636;28;83385;-45
2023/08/20 00:48:55;;;;;;;;;;;25.80;49.20;;;;;;5007060;28;83427;-43
2023/08/20 00:51:22;;;;;;;;;;;25.80;49.20;;;;;;5016798;28;82034;-45
2023/08/20 00:53:48;;;;;;;;;;;25.70;49.20;;;;;;5015395;28;82656;-45
2023/08/20 00:56:13;;;;;;;;;;;25.70;49.20;;;;;;5015613;28;82054;-46
2023/08/20 00:58:39;;;;;;;;;;;25.70;49.20;;;;;;5015749;28;82112;-46
2023/08/20 01:01:04;;;;;;;;;;;25.70;49.30;;;;;;5017998;28;83067;-46
2023/08/20 01:03:30;;;;;;;;;;;25.70;49.20;;;;;;5013991;28;82123;-43
2023/08/20 01:06:02;;;;;;;;;;;25.70;49.20;;;;;;5011297;28;82615;-46
2023/08/20 01:08:28;;;;;;;;;;;25.70;49.20;;;;;;5015073;28;84059;-43
2023/08/20 01:10:58;;;;;;;;;;;25.70;49.30;;;;;;5014657;28;82275;-46
2023/08/20 01:13:24;;;;;;;;;;;25.70;49.30;;;;;;5014041;28;83018;-43
2023/08/20 01:15:49;;;;;;;;;;;25.60;49.30;;;;;;5016788;28;81911;-43
2023/08/20 01:18:15;;;;;;;;;;;25.60;49.30;;;;;;5013631;28;82184;-43
2023/08/20 01:20:43;;;;;;;;;;;25.60;49.30;;;;;;5013896;28;82772;-44
2023/08/20 01:23:20;;;;;;;;;;;25.60;49.30;;;;;;5017147;28;83150;-44
2023/08/20 01:25:53;;;;;;;;;;;25.60;49.30;;;;;;5014671;28;82429;-45
2023/08/20 01:28:22;;;;;;;;;;;25.50;49.30;;;;;;5010902;28;82968;-44
2023/08/20 01:30:48;;;;;;;;;;;25.50;49.30;;;;;;5015397;28;82039;-43
2023/08/20 01:33:14;;;;;;;;;;;25.50;49.30;;;;;;5014526;28;82964;-44
2023/08/20 01:35:40;;;;;;;;;;;25.50;49.30;;;;;;5012806;28;83082;-44
2023/08/20 01:38:05;;;;;;;;;;;25.50;49.30;;;;;;5013642;28;82910;-45
2023/08/20 01:40:31;;;;;;;;;;;25.50;49.30;;;;;;5009147;28;82537;-43
2023/08/20 01:42:57;;;;;;;;;;;25.50;49.40;;;;;;5016568;28;82523;-46
2023/08/20 01:45:23;;;;;;;;;;;25.40;49.30;;;;;;5016398;28;81954;-43
2023/08/20 01:47:48;;;;;;;;;;;25.40;49.40;;;;;;5015579;28;83000;-47
2023/08/20 01:50:14;;;;;;;;;;;25.40;49.40;;;;;;5012251;28;81395;-45
2023/08/20 01:52:39;;;;;;;;;;;25.40;49.50;;;;;;5011630;28;82980;-45
2023/08/20 01:55:05;;;;;;;;;;;25.40;49.40;;;;;;5001224;28;84598;-45
2023/08/20 01:57:31;;;;;;;;;;;25.40;49.50;;;;;;5010017;28;83186;-45
2023/08/20 01:59:57;;;;;;;;;;;25.40;49.40;;;;;;5012053;28;83187;-44
2023/08/20 02:02:23;;;;;;;;;;;25.30;49.40;;;;;;5013982;28;82998;-43
2023/08/20 02:04:49;;;;;;;;;;;25.30;49.50;;;;;;5016480;28;81942;-46
2023/08/20 02:07:14;;;;;;;;;;;25.30;49.50;;;;;;5015087;28;82178;-44
2023/08/20 02:09:40;;;;;;;;;;;25.30;49.50;;;;;;5014611;28;82018;-44
2023/08/20 02:12:05;;;;;;;;;;;25.30;49.50;;;;;;5013676;28;82007;-43
2023/08/20 02:14:34;;;;;;;;;;;25.30;49.50;;;;;;5016031;28;82232;-45
2023/08/20 02:17:03;;;;;;;;;;;25.20;49.50;;;;;;5012166;28;81823;-43
2023/08/20 02:19:28;;;;;;;;;;;25.20;49.60;;;;;;5014925;28;82830;-44
2023/08/20 02:21:54;;;;;;;;;;;25.20;49.60;;;;;;5014850;28;84022;-45
2023/08/20 02:24:20;;;;;;;;;;;25.20;49.60;;;;;;5017745;28;81973;-46
2023/08/20 02:26:45;;;;;;;;;;;25.20;49.60;;;;;;5020147;28;82618;-44
2023/08/20 02:29:11;;;;;;;;;;;25.20;49.60;;;;;;5018801;28;82075;-45
2023/08/20 02:31:37;;;;;;;;;;;25.20;49.70;;;;;;5015895;28;82657;-43
2023/08/20 02:34:02;;;;;;;;;;;25.20;49.70;;;;;;5015985;28;83159;-45
2023/08/20 02:36:28;;;;;;;;;;;25.20;49.80;;;;;;5009746;28;82175;-43
2023/08/20 02:38:53;;;;;;;;;;;25.10;49.60;;;;;;5019704;28;81923;-45
2023/08/20 02:41:19;;;;;;;;;;;25.10;49.70;;;;;;5016912;28;82123;-44
2023/08/20 02:43:44;;;;;;;;;;;25.10;49.70;;;;;;5018329;28;82150;-45
2023/08/20 02:46:10;;;;;;;;;;;25.10;49.70;;;;;;5014640;28;82946;-44
2023/08/20 02:48:36;;;;;;;;;;;25.10;49.80;;;;;;5020790;28;83076;-45
2023/08/20 02:51:02;;;;;;;;;;;25.00;49.70;;;;;;5015683;28;82485;-45
2023/08/20 02:53:28;;;;;;;;;;;25.00;49.70;;;;;;5014152;28;85843;-43
2023/08/20 02:55:53;;;;;;;;;;;25.00;49.80;;;;;;5011962;28;82166;-46
2023/08/20 02:58:19;;;;;;;;;;;25.00;49.80;;;;;;5018784;28;82402;-44
2023/08/20 03:00:45;;;;;;;;;;;25.00;49.80;;;;;;5016721;28;83176;-45
2023/08/20 03:03:11;;;;;;;;;;;25.00;49.90;;;;;;5017154;28;81409;-43
2023/08/20 03:05:36;;;;;;;;;;;24.90;49.80;;;;;;5012444;28;82058;-45
2023/08/20 03:08:03;;;;;;;;;;;24.90;49.90;;;;;;5016667;28;82178;-44
2023/08/20 03:10:29;;;;;;;;;;;24.90;49.90;;;;;;5017733;28;82868;-46
2023/08/20 03:12:55;;;;;;;;;;;24.90;49.90;;;;;;5018592;28;83091;-43
2023/08/20 03:15:21;;;;;;;;;;;24.90;49.90;;;;;;5015888;28;82212;-47
2023/08/20 03:17:46;;;;;;;;;;;24.90;50.00;;;;;;5018705;28;82517;-43
2023/08/20 03:20:12;;;;;;;;;;;24.90;49.90;;;;;;5016701;28;82886;-48
2023/08/20 03:22:38;;;;;;;;;;;24.90;50.00;;;;;;5015773;28;82114;-44
2023/08/20 03:25:03;;;;;;;;;;;24.80;50.00;;;;;;5016552;28;82354;-45
2023/08/20 03:27:29;;;;;;;;;;;24.80;50.00;;;;;;5018416;28;82356;-45
2023/08/20 03:29:55;;;;;;;;;;;24.80;50.10;;;;;;5015624;28;82144;-45
2023/08/20 03:32:20;;;;;;;;;;;24.80;50.10;;;;;;5017674;28;82268;-45
2023/08/20 03:34:46;;;;;;;;;;;24.70;50.00;;;;;;5017917;28;83023;-43
2023/08/20 03:37:11;;;;;;;;;;;24.80;50.00;;;;;;5015339;28;82518;-45
2023/08/20 03:39:37;;;;;;;;;;;24.70;50.10;;;;;;5017159;28;82627;-46
2023/08/20 03:42:03;;;;;;;;;;;24.70;50.10;;;;;;5010039;28;82225;-44
2023/08/20 03:44:29;;;;;;;;;;;24.70;50.10;;;;;;5006699;28;82407;-43
2023/08/20 03:46:55;;;;;;;;;;;24.70;50.20;;;;;;5017100;28;82779;-43
2023/08/20 03:49:20;;;;;;;;;;;24.60;50.10;;;;;;5014902;28;81944;-46
2023/08/20 03:51:46;;;;;;;;;;;24.70;50.20;;;;;;5010960;28;81837;-43
2023/08/20 03:54:11;;;;;;;;;;;24.70;50.20;;;;;;5001628;28;82095;-43
2023/08/20 03:56:37;;;;;;;;;;;24.60;50.20;;;;;;5017498;28;82550;-45
2023/08/20 03:59:03;;;;;;;;;;;24.60;50.20;;;;;;5011871;28;83840;-45
2023/08/20 04:01:28;;;;;;;;;;;24.60;50.30;;;;;;5005136;28;82108;-44
2023/08/20 04:03:54;;;;;;;;;;;24.60;50.30;;;;;;5008635;28;82370;-45
2023/08/20 04:06:19;;;;;;;;;;;24.60;50.30;;;;;;5017354;28;82444;-43
2023/08/20 04:08:45;;;;;;;;;;;24.60;50.30;;;;;;5012336;28;82216;-45
2023/08/20 04:11:11;;;;;;;;;;;24.60;50.40;;;;;;5009728;28;82610;-46
2023/08/20 04:13:44;;;;;;;;;;;24.60;50.30;;;;;;4892660;28;10001235;-44
2023/08/20 04:16:10;;;;;;;;;;;24.50;50.40;;;;;;5045965;27;81209;-46
2023/08/20 04:18:36;;;;;;;;;;;24.50;50.40;;;;;;4998413;28;82810;-44
2023/08/20 04:21:01;;;;;;;;;;;24.50;50.40;;;;;;5005526;28;83240;-46
2023/08/20 04:23:27;;;;;;;;;;;24.50;50.40;;;;;;5013006;28;83066;-48
2023/08/20 04:25:52;;;;;;;;;;;24.50;50.40;;;;;;5017600;28;82143;-45
2023/08/20 04:28:18;;;;;;;;;;;24.50;50.40;;;;;;5008488;28;82028;-43
2023/08/20 04:30:43;;;;;;;;;;;24.50;50.50;;;;;;5004162;28;82332;-45
2023/08/20 04:33:09;;;;;;;;;;;24.50;50.50;;;;;;5008273;28;82447;-43
2023/08/20 04:35:34;;;;;;;;;;;24.40;50.50;;;;;;5018366;28;82116;-44
2023/08/20 04:38:00;;;;;;;;;;;24.50;50.50;;;;;;5012729;28;82278;-46
2023/08/20 04:40:26;;;;;;;;;;;24.40;50.50;;;;;;5010225;28;82448;-45
2023/08/20 04:42:51;;;;;;;;;;;24.40;50.60;;;;;;5012873;28;82695;-46
2023/08/20 04:45:19;;;;;;;;;;;24.40;50.60;;;;;;5014274;28;81969;-45
2023/08/20 04:47:45;;;;;;;;;;;24.40;50.60;;;;;;5000740;28;83910;-46
2023/08/20 04:50:10;;;;;;;;;;;24.40;50.60;;;;;;5005401;28;82213;-42
2023/08/20 04:52:36;;;;;;;;;;;24.40;50.60;;;;;;5015325;28;82329;-44
2023/08/20 04:55:02;;;;;;;;;;;24.40;50.60;;;;;;5014004;28;82907;-45
2023/08/20 04:57:27;;;;;;;;;;;24.40;50.60;;;;;;5010550;28;83446;-44
2023/08/20 04:59:53;;;;;;;;;;;24.30;50.70;;;;;;5010605;28;82072;-46
2023/08/20 05:02:19;;;;;;;;;;;24.30;50.70;;;;;;5012840;28;82112;-45
2023/08/20 05:04:45;;;;;;;;;;;24.40;50.80;;;;;;5012829;28;82590;-45
2023/08/20 05:07:10;;;;;;;;;;;24.30;50.70;;;;;;5008536;28;82381;-45
2023/08/20 05:09:36;;;;;;;;;;;24.30;50.70;;;;;;5011924;28;82099;-45
2023/08/20 05:12:02;;;;;;;;;;;24.30;50.70;;;;;;5014670;28;83048;-45
2023/08/20 05:14:28;;;;;;;;;;;24.30;50.70;;;;;;5011956;28;83099;-44
2023/08/20 05:16:54;;;;;;;;;;;24.30;50.80;;;;;;5009110;28;82997;-45
2023/08/20 05:19:19;;;;;;;;;;;24.30;50.70;;;;;;5011205;28;81995;-44
2023/08/20 05:21:45;;;;;;;;;;;24.30;50.70;;;;;;5013740;28;82021;-42
2023/08/20 05:24:10;;;;;;;;;;;24.30;50.70;;;;;;5013116;28;82557;-44
2023/08/20 05:26:36;;;;;;;;;;;24.30;50.70;;;;;;4996194;28;83049;-43
2023/08/20 05:29:01;;;;;;;;;;;24.30;50.70;;;;;;5014677;28;81387;-46
2023/08/20 05:31:28;;;;;;;;;;;24.30;50.80;;;;;;5015708;28;81975;-45
2023/08/20 05:33:53;;;;;;;;;;;24.30;50.70;;;;;;5004573;28;82232;-46
2023/08/20 05:36:19;;;;;;;;;;;24.30;50.70;;;;;;5002717;28;83099;-44
2023/08/20 05:38:44;;;;;;;;;;;24.30;50.80;;;;;;5012579;28;82525;-43
2023/08/20 05:41:10;;;;;;;;;;;24.30;50.70;;;;;;5015901;28;82015;-46
2023/08/20 05:43:38;;;;;;;;;;;24.30;50.70;;;;;;5010533;28;82124;-44
2023/08/20 05:46:04;;;;;;;;;;;24.30;50.80;;;;;;5009689;28;82950;-45
2023/08/20 05:48:29;;;;;;;;;;;24.30;50.80;;;;;;5012608;28;82247;-45
2023/08/20 05:50:55;;;;;;;;;;;24.30;50.90;;;;;;5014100;28;83083;-44
2023/08/20 05:53:22;;;;;;;;;;;24.30;50.80;;;;;;5003460;28;82267;-44
2023/08/20 05:55:47;;;;;;;;;;;24.30;50.80;;;;;;5011639;28;82741;-44
2023/08/20 05:58:13;;;;;;;;;;;24.30;50.80;;;;;;5016472;28;82476;-46
2023/08/20 06:00:38;;;;;;;;;;;24.30;50.90;;;;;;5019790;28;84010;-45
2023/08/20 06:03:04;;;;;;;;;;;24.20;51.00;;;;;;5000807;28;83805;-43
2023/08/20 06:05:29;;;;;;;;;;;24.20;51.00;;;;;;5007875;28;83068;-43
2023/08/20 06:07:55;;;;;;;;;;;24.20;50.90;;;;;;5017965;28;82135;-45
2023/08/20 06:10:21;;;;;;;;;;;24.20;51.00;;;;;;5017243;28;82431;-43
2023/08/20 06:12:46;;;;;;;;;;;24.20;51.00;;;;;;5010477;28;83111;-46
2023/08/20 06:15:12;;;;;;;;;;;24.20;50.90;;;;;;5010099;28;82032;-44
2023/08/20 06:17:37;;;;;;;;;;;24.20;51.00;;;;;;5016083;28;82426;-45
2023/08/20 06:20:07;;;;;;;;;;;24.20;51.00;;;;;;5017832;28;82939;-46
2023/08/20 06:22:32;;;;;;;;;;;24.20;51.00;;;;;;5012695;28;82344;-46
2023/08/20 06:24:58;;;;;;;;;;;24.20;51.00;;;;;;5013183;28;84192;-48
2023/08/20 06:27:23;;;;;;;;;;;24.20;51.00;;;;;;5017388;28;82102;-45
2023/08/20 06:29:49;;;;;;;;;;;24.20;51.10;;;;;;5015587;28;82523;-44
2023/08/20 06:32:14;;;;;;;;;;;24.20;51.10;;;;;;5009408;28;83514;-43
2023/08/20 06:34:40;;;;;;;;;;;24.20;51.10;;;;;;5013771;28;82139;-42
2023/08/20 06:37:05;;;;;;;;;;;24.20;51.20;;;;;;5016465;28;82311;-45
2023/08/20 06:39:31;;;;;;;;;;;24.20;51.10;;;;;;5011102;28;83144;-46
2023/08/20 06:41:57;;;;;;;;;;;24.20;51.20;;;;;;5010185;28;81759;-46
2023/08/20 06:44:22;;;;;;;;;;;24.20;51.20;;;;;;5015162;28;82353;-46
2023/08/20 06:46:48;;;;;;;;;;;24.10;51.10;;;;;;5015981;28;82160;-44
2023/08/20 06:49:13;;;;;;;;;;;24.20;51.30;;;;;;5006125;28;83099;-46
2023/08/20 06:51:39;;;;;;;;;;;24.10;51.20;;;;;;5006153;28;84575;-44
2023/08/20 06:54:06;;;;;;;;;;;24.20;51.30;;;;;;5013685;28;82037;-44
2023/08/20 06:56:32;;;;;;;;;;;24.20;51.30;;;;;;5018051;28;82034;-44
2023/08/20 06:58:57;;;;;;;;;;;24.10;51.30;;;;;;5008906;28;82880;-45
2023/08/20 07:01:23;;;;;;;;;;;24.10;51.30;;;;;;5015109;28;82102;-47
2023/08/20 07:03:49;;;;;;;;;;;24.10;51.30;;;;;;5012322;28;82001;-45
2023/08/20 07:06:16;;;;;;;;;;;24.10;51.30;;;;;;5020394;28;82268;-43
2023/08/20 07:08:41;;;;;;;;;;;24.10;51.40;;;;;;5007800;28;83813;-44
2023/08/20 07:11:07;;;;;;;;;;;24.20;51.30;;;;;;5009767;28;82944;-47
2023/08/20 07:13:33;;;;;;;;;;;24.20;51.20;;;;;;5018087;28;83479;-43
2023/08/20 07:15:58;;;;;;;;;;;24.20;51.30;;;;;;5014354;28;83258;-46
2023/08/20 07:18:24;;;;;;;;;;;24.20;51.30;;;;;;5011616;28;83094;-47
2023/08/20 07:20:50;;;;;;;;;;;24.30;51.40;;;;;;5009330;28;82184;-46
2023/08/20 07:23:15;;;;;;;;;;;24.20;51.30;;;;;;5017433;28;82012;-45
2023/08/20 07:25:41;;;;;;;;;;;24.20;51.30;;;;;;5015465;28;82910;-43
2023/08/20 07:28:08;;;;;;;;;;;24.20;51.40;;;;;;5010951;28;82170;-50
2023/08/20 07:30:34;;;;;;;;;;;24.20;51.50;;;;;;5008188;28;81501;-45
2023/08/20 07:32:59;;;;;;;;;;;24.20;51.50;;;;;;5014965;28;82166;-45
2023/08/20 07:35:25;;;;;;;;;;;24.30;51.60;;;;;;5010546;28;82995;-44
2023/08/20 07:37:50;;;;;;;;;;;24.20;51.50;;;;;;5007968;28;84222;-45
2023/08/20 07:40:16;;;;;;;;;;;24.30;51.60;;;;;;5013104;28;83522;-44
2023/08/20 07:42:42;;;;;;;;;;;24.30;51.50;;;;;;5016408;28;82450;-46
2023/08/20 07:45:07;;;;;;;;;;;24.30;51.60;;;;;;5009056;28;83285;-46
2023/08/20 07:47:33;;;;;;;;;;;24.30;51.50;;;;;;5007065;28;82159;-44
2023/08/20 07:49:59;;;;;;;;;;;24.30;51.50;;;;;;5011424;28;82075;-46
2023/08/20 07:52:25;;;;;;;;;;;24.30;51.60;;;;;;5017736;28;82162;-45
2023/08/20 07:54:50;;;;;;;;;;;24.30;51.60;;;;;;5010891;28;82564;-47
2023/08/20 07:57:16;;;;;;;;;;;24.30;51.60;;;;;;5011748;28;82883;-43
2023/08/20 07:59:41;;;;;;;;;;;24.30;51.60;;;;;;5012889;28;82445;-46
2023/08/20 08:02:07;;;;;;;;;;;24.30;51.60;;;;;;5015383;28;82927;-43
2023/08/20 08:04:34;;;;;;;;;;;24.30;51.60;;;;;;5010020;28;83089;-44
2023/08/20 08:06:59;;;;;;;;;;;24.30;51.60;;;;;;5006433;28;82687;-49
2023/08/20 08:09:28;;;;;;;;;;;24.30;51.70;;;;;;5012193;28;82392;-45
2023/08/20 08:11:54;;;;;;;;;;;24.30;51.60;;;;;;5013942;28;82343;-46
2023/08/20 08:14:20;;;;;;;;;;;24.30;51.50;;;;;;5009229;28;82358;-43
2023/08/20 08:16:45;;;;;;;;;;;24.40;51.60;;;;;;5004900;28;83025;-46
2023/08/20 08:19:11;;;;;;;;;;;24.30;51.40;;;;;;5014885;28;81254;-45
2023/08/20 08:21:37;;;;;;;;;;;24.40;51.50;;;;;;5015270;28;81999;-45
2023/08/20 08:24:03;;;;;;;;;;;24.40;51.40;;;;;;5008565;28;83605;-46
2023/08/20 08:26:28;;;;;;;;;;;24.40;51.40;;;;;;5006902;28;83036;-46
2023/08/20 08:28:54;;;;;;;;;;;24.40;51.30;;;;;;5014514;28;83098;-45
2023/08/20 08:31:19;;;;;;;;;;;24.50;51.30;;;;;;5017724;28;83218;-46
2023/08/20 08:33:45;;;;;;;;;;;24.50;51.90;;;;;;5010696;28;82441;-44
2023/08/20 08:36:11;;;;;;;;;;;24.50;51.30;;;;;;5011756;28;82082;-47
2023/08/20 08:38:36;;;;;;;;;;;24.50;51.20;;;;;;5016211;28;82040;-45
2023/08/20 08:41:03;;;;;;;;;;;24.50;51.40;;;;;;5012926;28;83314;-49
2023/08/20 08:43:30;;;;;;;;;;;24.50;51.50;;;;;;5005058;28;81912;-46
2023/08/20 08:45:55;;;;;;;;;;;24.40;51.20;;;;;;5014968;28;81851;-44
2023/08/20 08:48:21;;;;;;;;;;;24.50;51.30;;;;;;5014106;28;81894;-46
2023/08/20 08:50:47;;;;;;;;;;;24.50;51.20;;;;;;5002074;28;84177;-43
2023/08/20 08:53:13;;;;;;;;;;;24.50;51.40;;;;;;5013924;28;82287;-43
2023/08/20 08:55:38;;;;;;;;;;;24.50;51.30;;;;;;5013005;28;83836;-48
2023/08/20 08:58:04;;;;;;;;;;;24.50;51.30;;;;;;5015615;28;82094;-44
2023/08/20 09:00:31;;;;;;;;;;;24.50;51.30;;;;;;5008357;28;82319;-45
2023/08/20 09:02:57;;;;;;;;;;;24.50;51.40;;;;;;5003597;28;86240;-46
2023/08/20 09:05:22;;;;;;;;;;;24.40;51.30;;;;;;5016158;28;82310;-43
2023/08/20 09:07:54;;;;;;;;;;;24.50;51.30;;;;;;5015113;28;82127;-45
2023/08/20 09:10:20;;;;;;;;;;;24.50;51.20;;;;;;5012545;28;82442;-46
2023/08/20 09:12:47;;;;;;;;;;;24.60;51.10;;;;;;5010543;28;82154;-49
2023/08/20 09:15:12;;;;;;;;;;;24.50;51.00;;;;;;5018019;28;83174;-46
2023/08/20 09:17:40;;;;;;;;;;;24.50;50.90;;;;;;5009261;28;82068;-45
2023/08/20 09:20:06;;;;;;;;;;;24.50;50.90;;;;;;5005796;28;84686;-48
2023/08/20 09:22:31;;;;;;;;;;;24.50;50.90;;;;;;5007943;28;84620;-45
2023/08/20 09:24:57;;;;;;;;;;;24.50;50.90;;;;;;5014166;28;82116;-43
2023/08/20 09:27:23;;;;;;;;;;;24.50;50.90;;;;;;5013996;28;82759;-47
2023/08/20 09:29:53;;;;;;;;;;;24.60;50.90;;;;;;5004842;28;82817;-47
2023/08/20 09:32:22;;;;;;;;;;;24.50;50.90;;;;;;5011503;28;81362;-44
2023/08/20 09:34:48;;;;;;;;;;;24.50;50.90;;;;;;5019123;28;82131;-46
2023/08/20 09:37:15;;;;;;;;;;;24.60;50.80;;;;;;5016605;28;82208;-45
2023/08/20 09:39:41;;;;;;;;;;;24.60;50.70;;;;;;5012386;28;83168;-44
2023/08/20 09:42:08;;;;;;;;;;;24.60;50.70;;;;;;5015368;28;83497;-45
2023/08/20 09:44:35;;;;;;;;;;;24.50;50.50;;;;;;5018194;28;82061;-44
2023/08/20 09:47:06;;;;;;;;;;;24.60;50.60;;;;;;5010394;28;82098;-44
2023/08/20 09:49:35;;;;;;;;;;;24.60;50.40;;;;;;5008151;28;83115;-47
2023/08/20 09:52:03;;;;;;;;;;;24.60;50.30;;;;;;5017472;28;82046;-44
2023/08/20 09:54:37;;;;;;;;;;;24.60;50.30;;;;;;5018278;28;82582;-46
2023/08/20 09:57:07;;;;;;;;;;;24.60;50.20;;;;;;5005078;28;82222;-45
2023/08/20 09:59:35;;;;;;;;;;;24.60;50.80;;;;;;5007999;28;82283;-43
2023/08/20 10:02:01;;;;;;;;;;;24.60;50.10;;;;;;5018423;28;83078;-46
2023/08/20 10:04:28;;;;;;;;;;;24.60;50.00;;;;;;5014499;28;83943;-47
2023/08/20 10:06:54;;;;;;;;;;;24.60;49.80;;;;;;5012441;28;83848;-48
2023/08/20 10:09:20;;;;;;;;;;;24.70;49.90;;;;;;5011709;28;82936;-44
2023/08/20 10:11:46;;;;;;;;;;;24.70;49.80;;;;;;5019292;28;82015;-45
2023/08/20 10:14:12;;;;;;;;;;;24.70;49.80;;;;;;5012582;28;82053;-46
2023/08/20 10:16:38;;;;;;;;;;;24.70;49.80;;;;;;5012124;28;83201;-46
2023/08/20 10:19:05;;;;;;;;;;;24.60;49.70;;;;;;5015655;28;82133;-47
2023/08/20 10:21:31;;;;;;;;;;;24.70;49.60;;;;;;5016139;28;82433;-46
2023/08/20 10:23:57;;;;;;;;;;;24.70;49.70;;;;;;5008617;28;82760;-43
2023/08/20 10:26:24;;;;;;;;;;;24.70;49.70;;;;;;5006853;28;82972;-44
2023/08/20 10:28:50;;;;;;;;;;;24.70;49.70;;;;;;5015137;28;83795;-45
2023/08/20 10:31:16;;;;;;;;;;;24.70;49.60;;;;;;5016829;28;82038;-46
2023/08/20 10:33:57;;;;;;;;;;;24.80;49.50;;;;;;5009085;28;82063;-47
2023/08/20 10:36:28;;;;;;;;;;;24.70;49.60;;;;;;5010940;28;83184;-43
2023/08/20 10:38:56;;;;;;;;;;;24.70;49.50;;;;;;5013868;28;82405;-43
2023/08/20 10:41:25;;;;;;;;;;;24.80;49.50;;;;;;5016229;28;83847;-47
2023/08/20 10:43:52;;;;;;;;;;;24.80;49.50;;;;;;5016391;28;82976;-46
2023/08/20 10:46:19;;;;;;;;;;;24.80;49.40;;;;;;5011811;28;82420;-44
2023/08/20 10:48:48;;;;;;;;;;;24.80;49.50;;;;;;5015645;28;83047;-45
2023/08/20 10:51:33;;;;;;;;;;;24.80;49.40;;;;;;5016008;28;81938;-44
2023/08/20 10:54:02;;;;;;;;;;;24.80;49.30;;;;;;5007747;28;83110;-44
2023/08/20 10:56:41;;;;;;;;;;;24.80;49.20;;;;;;5011127;28;83668;-45
2023/08/20 10:59:08;;;;;;;;;;;24.80;49.00;;;;;;5015836;28;82136;-44
2023/08/20 11:01:34;;;;;;;;;;;24.80;49.10;;;;;;5008622;28;82315;-44
2023/08/20 11:04:04;;;;;;;;;;;24.90;49.60;;;;;;5012123;28;83805;-44
2023/08/20 11:06:33;;;;;;;;;;;24.90;48.80;;;;;;5011976;28;83088;-48
2023/08/20 11:08:58;;;;;;;;;;;24.90;48.90;;;;;;5016380;28;82847;-45
2023/08/20 11:11:25;;;;;;;;;;;24.90;48.80;;;;;;5008658;28;83258;-48
2023/08/20 11:13:50;;;;;;;;;;;25.00;48.60;;;;;;5013577;28;82063;-46
2023/08/20 11:16:16;;;;;;;;;;;25.00;48.60;;;;;;5015192;28;82859;-45
2023/08/20 11:18:42;;;;;;;;;;;25.00;48.40;;;;;;5015622;28;82996;-49
2023/08/20 11:21:08;;;;;;;;;;;25.00;48.40;;;;;;5007059;28;83150;-46
2023/08/20 11:23:34;;;;;;;;;;;25.00;48.50;;;;;;5011253;28;82879;-44
2023/08/20 11:26:00;;;;;;;;;;;25.00;48.50;;;;;;5017691;28;82126;-46
2023/08/20 11:28:27;;;;;;;;;;;25.00;48.50;;;;;;5015079;28;83049;-48
2023/08/20 11:30:52;;;;;;;;;;;25.10;48.60;;;;;;5005435;28;82148;-47
2023/08/20 11:33:18;;;;;;;;;;;25.00;48.50;;;;;;5010450;28;82560;-45
2023/08/20 11:35:44;;;;;;;;;;;25.00;48.60;;;;;;5015754;28;82875;-44
2023/08/20 11:38:10;;;;;;;;;;;25.00;48.50;;;;;;5016031;28;82128;-45
2023/08/20 11:40:36;;;;;;;;;;;25.10;48.50;;;;;;5008092;28;83739;-46
2023/08/20 11:43:02;;;;;;;;;;;25.10;48.50;;;;;;4999980;28;84127;-47
2023/08/20 11:45:27;;;;;;;;;;;25.10;48.60;;;;;;5017791;28;82120;-46
2023/08/20 11:48:00;;;;;;;;;;;25.10;48.50;;;;;;5016418;28;82316;-44
2023/08/20 11:50:25;;;;;;;;;;;25.20;48.50;;;;;;5007730;28;82126;-44
2023/08/20 11:53:01;;;;;;;;;;;25.20;48.50;;;;;;5010935;28;82303;-49
2023/08/20 11:55:29;;;;;;;;;;;25.20;48.50;;;;;;5017757;28;83118;-46
2023/08/20 11:57:55;;;;;;;;;;;25.30;48.50;;;;;;5009956;28;82074;-45
2023/08/20 12:00:24;;;;;;;;;;;25.20;48.40;;;;;;5002527;28;82363;-45
2023/08/20 12:02:52;;;;;;;;;;;25.20;48.50;;;;;;5013726;28;83140;-46
2023/08/20 12:05:19;;;;;;;;;;;25.20;48.50;;;;;;5016645;28;81976;-45
2023/08/20 12:07:54;;;;;;;;;;;25.20;48.50;;;;;;5009773;28;84115;-47
2023/08/20 12:10:23;;;;;;;;;;;25.30;48.60;;;;;;5007006;28;82134;-46
2023/08/20 12:12:49;;;;;;;;;;;25.30;48.50;;;;;;5015624;28;81995;-43
2023/08/20 12:15:15;;;;;;;;;;;25.30;48.40;;;;;;5015176;28;83020;-44
2023/08/20 12:17:40;;;;;;;;;;;25.30;49.00;;;;;;5006401;28;82757;-43
2023/08/20 12:20:12;;;;;;;;;;;25.40;48.40;;;;;;5000082;28;82506;-46
2023/08/20 12:22:38;;;;;;;;;;;25.40;48.50;;;;;;5011473;28;83143;-43
2023/08/20 12:25:04;;;;;;;;;;;25.40;48.40;;;;;;5013793;28;82034;-44
2023/08/20 12:27:30;;;;;;;;;;;25.40;48.50;;;;;;5009876;28;82118;-45
2023/08/20 12:29:55;;;;;;;;;;;25.40;48.50;;;;;;5013668;28;82178;-44
2023/08/20 12:32:21;;;;;;;;;;;25.40;48.50;;;;;;5014774;28;83157;-47
2023/08/20 12:34:46;;;;;;;;;;;25.40;48.20;;;;;;5045109;27;83614;-46
2023/08/20 12:37:12;;;;;;;;;;;25.40;48.10;;;;;;5007405;28;83005;-44
2023/08/20 12:39:37;;;;;;;;;;;25.50;48.00;;;;;;5006702;28;82732;-46
2023/08/20 12:42:03;;;;;;;;;;;25.50;47.00;;;;;;5014648;28;83044;-44
2023/08/20 12:44:28;;;;;;;;;;;25.50;47.80;;;;;;5014097;28;82208;-46
2023/08/20 12:46:54;;;;;;;;;;;25.50;48.00;;;;;;5011358;28;83742;-44
2023/08/20 12:49:19;;;;;;;;;;;25.40;48.00;;;;;;5010631;28;84151;-44
2023/08/20 12:51:45;;;;;;;;;;;25.40;48.20;;;;;;5019295;28;82099;-46
2023/08/20 12:54:11;;;;;;;;;;;25.50;48.30;;;;;;5012769;28;83131;-45
2023/08/20 12:56:36;;;;;;;;;;;25.60;47.90;;;;;;5003517;28;83116;-45
2023/08/20 12:59:02;;;;;;;;;;;25.70;48.00;;;;;;5006845;28;82973;-44
2023/08/20 13:01:28;;;;;;;;;;;25.70;47.90;;;;;;5013744;28;82994;-46
2023/08/20 13:03:54;;;;;;;;;;;25.70;47.80;;;;;;5014391;28;81924;-44
2023/08/20 13:06:19;;;;;;;;;;;25.80;48.00;;;;;;5009618;28;82517;-44
2023/08/20 13:08:45;;;;;;;;;;;25.80;47.90;;;;;;5010142;28;83053;-49
2023/08/20 13:11:13;;;;;;;;;;;25.80;48.00;;;;;;5011008;28;82106;-47
2023/08/20 13:13:41;;;;;;;;;;;25.80;48.20;;;;;;5016781;28;81237;-46
2023/08/20 13:16:07;;;;;;;;;;;25.80;48.20;;;;;;5011604;28;81955;-43
2023/08/20 13:18:32;;;;;;;;;;;25.80;48.20;;;;;;5008260;28;83299;-45
2023/08/20 13:20:58;;;;;;;;;;;25.70;48.20;;;;;;5007458;28;84668;-47
2023/08/20 13:23:23;;;;;;;;;;;25.80;48.30;;;;;;5015295;28;82191;-44
2023/08/20 13:25:49;;;;;;;;;;;25.70;48.60;;;;;;5007246;28;82580;-45
2023/08/20 13:28:14;;;;;;;;;;;25.60;48.80;;;;;;5007074;28;83323;-46
2023/08/20 13:30:40;;;;;;;;;;;25.60;48.60;;;;;;5044148;27;82544;-44
2023/08/20 13:33:05;;;;;;;;;;;25.70;48.80;;;;;;5013604;28;82228;-47
2023/08/20 13:35:31;;;;;;;;;;;25.80;48.50;;;;;;5009449;28;83140;-46
2023/08/20 13:37:57;;;;;;;;;;;25.80;48.60;;;;;;5008490;28;82600;-44
2023/08/20 13:40:22;;;;;;;;;;;25.60;48.80;;;;;;5012800;28;83056;-46
2023/08/20 13:42:48;;;;;;;;;;;25.70;48.90;;;;;;5014377;28;82008;-45
2023/08/20 13:45:13;;;;;;;;;;;25.70;48.90;;;;;;5010043;28;84202;-46
2023/08/20 13:47:39;;;;;;;;;;;25.70;48.80;;;;;;5015077;28;83291;-45
2023/08/20 13:50:05;;;;;;;;;;;25.70;48.90;;;;;;5012646;28;82034;-44
2023/08/20 13:52:30;;;;;;;;;;;25.70;49.00;;;;;;5014078;28;83585;-45
2023/08/20 13:54:56;;;;;;;;;;;25.70;49.00;;;;;;5009177;28;83878;-45
2023/08/20 13:57:21;;;;;;;;;;;25.70;49.00;;;;;;5006587;28;82480;-44
2023/08/20 13:59:47;;;;;;;;;;;25.70;49.00;;;;;;5013918;28;82886;-46
2023/08/20 14:02:12;;;;;;;;;;;25.80;49.10;;;;;;5014049;28;81355;-44
2023/08/20 14:04:38;;;;;;;;;;;25.80;49.10;;;;;;5010316;28;82287;-45
2023/08/20 14:07:04;;;;;;;;;;;25.80;49.10;;;;;;5004837;28;82113;-44
2023/08/20 14:09:29;;;;;;;;;;;25.80;49.10;;;;;;5015156;28;83002;-45
2023/08/20 14:11:55;;;;;;;;;;;25.80;49.20;;;;;;5008571;28;86482;-47